West Stockholm, New York
Current Conditions -  °F | °C
As of 3:53 PM on Friday 28 Nov 2014 (Local Time) from KMSS Reporting Station
Overcast Overcast  
Wind Chill: 14°   Ceiling: 3200
Heat Index: 24°   Visibility: 10mi
Dew Point: 12°   Wind: 9mph
Humidity: 60%   Direction: 290°WNW
Pressure: 30.18"   Gusts: NA
Location:  44.71°N, 74.9°W
Report Text: KMSS 282053Z AUTO 29008KT 10SM OVC032 M04/M11 A3018 RMK AO2 SLP227 60000 T10441111 53015
Loading
Personal Weather Stations






























Interactive Weather Map New forecast layout! Learn more

10-Day Weather Forecast

Advertisements
Track Severe Weather on mobile